Tropical Cyclones
[Index]
Main Index Home Page Stock Weather Photos Extreme Storms Discussion Storm News and Storm Chasing Reports Tropical Cyclones / Hurricanes / Typhoons Weather Data and Links Wild Fires / Bushfires Weather Observation Techniques Weather Picture Catalogue Tornado Pictures and Reports Stock Video Footage and DVDs for sale
Season 1983-1984 Tropical Cyclone KAMISY Track Map
Season 1983-1984 Summaries: [BoM-AU] [JTWC-AU] [JTWC-SIO] [JTWC-SPAC] [JTWC-SH]
<<- Previous TC | JTWC 1983-1984 Season | Next TC ->>

click for intensity scale information  Lat/long Grid: Show Hide

 Date Labels: Show Hide

Joint Typhoon Warning Centre Cyclone Data

Name: KAMISY

03 Apr 1984 18:00 UTC to 15 Apr 1984 06:00 UTC

    date/time    lat    long     hPa   cat  kts
1984-04-03 18   12.0    76.8                  20          
1984-04-04 00   12.0    75.2                  20          
1984-04-04 06   12.1    73.8                  25          
1984-04-04 12   12.3    72.7                  25          
1984-04-04 18   12.5    71.6                  30          
1984-04-05 00   12.4    70.5                  30          
1984-04-05 06   12.3    69.3                  30          
1984-04-05 12   12.3    68.1                  35          
1984-04-05 18   12.4    66.8            1     45          
1984-04-06 00   12.6    65.6            2     55          
1984-04-06 06   12.8    64.5            2     65          
1984-04-06 12   12.6    63.3            2     70          
1984-04-06 18   12.4    62.0            3     75          
1984-04-07 00   12.6    60.6            3     80          
1984-04-07 06   12.8    59.1            3     85          
1984-04-07 12   12.9    57.8            3     90          
1984-04-07 18   12.9    56.4            3     90          
1984-04-08 00   12.7    55.0            3     90          
1984-04-08 06   12.5    53.7            3     95          
1984-04-08 12   12.5    52.6            4    100          
1984-04-08 18   12.5    51.5            4    100          
1984-04-09 00   12.4    50.4            4    100          
1984-04-09 06   12.3    49.3            3     95          
1984-04-09 12   12.5    48.3            3     95          
1984-04-09 18   12.8    47.4            3     90          
1984-04-10 00   12.9    46.7            3     90          
1984-04-10 06   12.9    46.1            3     85          
1984-04-10 12   13.0    45.3            3     85          
1984-04-10 18   13.2    45.0            3     80          
1984-04-11 00   13.8    45.2            3     80          
1984-04-11 06   14.4    45.5            3     80          
1984-04-11 12   14.8    45.7            3     80          
1984-04-11 18   15.2    46.0            3     75          
1984-04-12 00   15.5    46.3            2     70          
1984-04-12 06   15.9    46.7            2     65          
1984-04-12 12   16.8    48.6            1     50          
1984-04-12 18   17.7    50.4                  35          
1984-04-13 00   18.0    50.4                  35          
1984-04-13 06   18.3    50.4                  35          
1984-04-13 12   18.6    50.6                  35          
1984-04-13 18   19.0    50.7                  35          
1984-04-14 00   19.4    50.7                  35          
1984-04-14 06   20.0    50.8                  30          
1984-04-14 12   21.5    50.8                  30          
1984-04-14 18   23.2    50.9                  25          
1984-04-15 00   24.5    51.1                  25          
1984-04-15 06   25.7    51.5                  20          
Winds are 1-min average.

Tropical cyclone tracks developed by Michael Bath using data from the Joint Typhoon Warning Centre Best Tracks and Google Maps.


[Australian Severe Weather index] [Copyright Notice] [Email Contacts] [Search This Site] [Privacy Policy]
Document: tropical_cyclone_kamisy.htm Updated: 18 September 2016